sensor_id;sensor_type;location;lat;lon;timestamp;P1;durP1;ratioP1;P2;durP2;ratioP2
71038;SDS011;58692;43.212;27.908;2024-02-26T00:02:15;18.90;;;11.38;;
71038;SDS011;58692;43.212;27.908;2024-02-26T00:04:40;18.73;;;10.48;;
71038;SDS011;58692;43.212;27.908;2024-02-26T00:07:06;18.93;;;9.63;;
71038;SDS011;58692;43.212;27.908;2024-02-26T00:09:32;19.73;;;10.77;;
71038;SDS011;58692;43.212;27.908;2024-02-26T00:12:01;18.30;;;10.07;;
71038;SDS011;58692;43.212;27.908;2024-02-26T00:14:26;19.30;;;10.50;;
71038;SDS011;58692;43.212;27.908;2024-02-26T00:16:52;17.92;;;10.07;;
71038;SDS011;58692;43.212;27.908;2024-02-26T00:19:18;17.67;;;9.70;;
71038;SDS011;58692;43.212;27.908;2024-02-26T00:21:43;19.07;;;10.30;;
71038;SDS011;58692;43.212;27.908;2024-02-26T00:24:09;17.40;;;9.98;;
71038;SDS011;58692;43.212;27.908;2024-02-26T00:26:34;19.50;;;10.23;;
71038;SDS011;58692;43.212;27.908;2024-02-26T00:29:00;16.73;;;9.13;;
71038;SDS011;58692;43.212;27.908;2024-02-26T00:31:25;18.83;;;10.30;;
71038;SDS011;58692;43.212;27.908;2024-02-26T00:33:51;19.17;;;9.67;;
71038;SDS011;58692;43.212;27.908;2024-02-26T00:36:16;17.53;;;9.60;;
71038;SDS011;58692;43.212;27.908;2024-02-26T00:38:43;16.88;;;9.48;;
71038;SDS011;58692;43.212;27.908;2024-02-26T00:41:11;18.67;;;9.80;;
71038;SDS011;58692;43.212;27.908;2024-02-26T00:43:37;23.75;;;10.07;;
71038;SDS011;58692;43.212;27.908;2024-02-26T00:46:04;16.97;;;9.87;;
71038;SDS011;58692;43.212;27.908;2024-02-26T00:48:30;17.23;;;9.57;;
71038;SDS011;58692;43.212;27.908;2024-02-26T00:50:55;19.23;;;10.00;;
71038;SDS011;58692;43.212;27.908;2024-02-26T00:53:21;18.33;;;9.63;;
71038;SDS011;58692;43.212;27.908;2024-02-26T00:55:47;16.33;;;9.30;;
71038;SDS011;58692;43.212;27.908;2024-02-26T00:58:12;18.60;;;9.77;;
71038;SDS011;58692;43.212;27.908;2024-02-26T01:00:38;17.40;;;8.90;;
71038;SDS011;58692;43.212;27.908;2024-02-26T01:03:04;19.07;;;9.97;;
71038;SDS011;58692;43.212;27.908;2024-02-26T01:05:30;19.77;;;10.37;;
71038;SDS011;58692;43.212;27.908;2024-02-26T01:07:55;18.23;;;9.90;;
71038;SDS011;58692;43.212;27.908;2024-02-26T01:10:21;19.17;;;10.37;;
71038;SDS011;58692;43.212;27.908;2024-02-26T01:12:46;19.37;;;9.87;;
71038;SDS011;58692;43.212;27.908;2024-02-26T01:15:12;15.70;;;9.10;;
71038;SDS011;58692;43.212;27.908;2024-02-26T01:17:38;17.25;;;10.30;;
71038;SDS011;58692;43.212;27.908;2024-02-26T01:20:04;16.80;;;9.60;;
71038;SDS011;58692;43.212;27.908;2024-02-26T01:22:30;17.95;;;9.32;;
71038;SDS011;58692;43.212;27.908;2024-02-26T01:24:56;19.97;;;9.77;;
71038;SDS011;58692;43.212;27.908;2024-02-26T01:27:22;16.83;;;9.55;;
71038;SDS011;58692;43.212;27.908;2024-02-26T01:29:51;19.88;;;9.40;;
71038;SDS011;58692;43.212;27.908;2024-02-26T01:32:17;17.47;;;9.30;;
71038;SDS011;58692;43.212;27.908;2024-02-26T01:34:43;19.80;;;10.52;;
71038;SDS011;58692;43.212;27.908;2024-02-26T01:37:08;18.20;;;8.80;;
71038;SDS011;58692;43.212;27.908;2024-02-26T01:39:34;21.20;;;9.85;;
71038;SDS011;58692;43.212;27.908;2024-02-26T01:41:59;17.40;;;10.47;;
71038;SDS011;58692;43.212;27.908;2024-02-26T01:44:26;16.77;;;9.63;;
71038;SDS011;58692;43.212;27.908;2024-02-26T01:46:52;18.30;;;9.30;;
71038;SDS011;58692;43.212;27.908;2024-02-26T01:49:18;17.15;;;9.38;;
71038;SDS011;58692;43.212;27.908;2024-02-26T01:51:44;17.23;;;9.50;;
71038;SDS011;58692;43.212;27.908;2024-02-26T01:54:11;19.38;;;9.82;;
71038;SDS011;58692;43.212;27.908;2024-02-26T01:56:37;16.37;;;8.77;;
71038;SDS011;58692;43.212;27.908;2024-02-26T01:59:03;16.87;;;9.17;;
71038;SDS011;58692;43.212;27.908;2024-02-26T02:01:31;19.83;;;10.38;;
71038;SDS011;58692;43.212;27.908;2024-02-26T02:03:58;17.95;;;9.23;;
71038;SDS011;58692;43.212;27.908;2024-02-26T02:06:25;21.30;;;10.43;;
71038;SDS011;58692;43.212;27.908;2024-02-26T02:08:53;19.52;;;9.93;;
71038;SDS011;58692;43.212;27.908;2024-02-26T02:11:19;19.27;;;9.43;;
71038;SDS011;58692;43.212;27.908;2024-02-26T02:13:45;16.30;;;9.18;;
71038;SDS011;58692;43.212;27.908;2024-02-26T02:16:11;18.83;;;9.30;;
71038;SDS011;58692;43.212;27.908;2024-02-26T02:18:37;16.57;;;8.80;;
71038;SDS011;58692;43.212;27.908;2024-02-26T02:21:03;18.52;;;9.05;;
71038;SDS011;58692;43.212;27.908;2024-02-26T02:23:29;21.17;;;9.07;;
71038;SDS011;58692;43.212;27.908;2024-02-26T02:25:55;20.63;;;9.63;;
71038;SDS011;58692;43.212;27.908;2024-02-26T02:28:23;17.77;;;8.70;;
71038;SDS011;58692;43.212;27.908;2024-02-26T02:30:50;14.88;;;7.85;;
71038;SDS011;58692;43.212;27.908;2024-02-26T02:33:15;14.87;;;7.90;;
71038;SDS011;58692;43.212;27.908;2024-02-26T02:35:42;14.45;;;7.63;;
71038;SDS011;58692;43.212;27.908;2024-02-26T02:38:08;16.77;;;7.95;;
71038;SDS011;58692;43.212;27.908;2024-02-26T02:40:34;15.20;;;7.67;;
71038;SDS011;58692;43.212;27.908;2024-02-26T02:42:59;15.88;;;7.25;;
71038;SDS011;58692;43.212;27.908;2024-02-26T02:45:27;19.00;;;7.97;;
71038;SDS011;58692;43.212;27.908;2024-02-26T02:47:53;15.67;;;7.60;;
71038;SDS011;58692;43.212;27.908;2024-02-26T02:50:18;14.50;;;7.35;;
71038;SDS011;58692;43.212;27.908;2024-02-26T02:52:44;15.90;;;7.73;;
71038;SDS011;58692;43.212;27.908;2024-02-26T02:55:09;16.42;;;7.70;;
71038;SDS011;58692;43.212;27.908;2024-02-26T02:57:35;18.50;;;8.23;;
71038;SDS011;58692;43.212;27.908;2024-02-26T03:00:06;16.25;;;7.28;;
71038;SDS011;58692;43.212;27.908;2024-02-26T03:02:33;15.10;;;7.40;;
71038;SDS011;58692;43.212;27.908;2024-02-26T03:05:01;15.52;;;7.57;;
71038;SDS011;58692;43.212;27.908;2024-02-26T03:07:27;16.10;;;7.38;;
71038;SDS011;58692;43.212;27.908;2024-02-26T03:09:53;14.93;;;6.47;;
71038;SDS011;58692;43.212;27.908;2024-02-26T03:12:18;15.53;;;7.10;;
71038;SDS011;58692;43.212;27.908;2024-02-26T03:14:44;15.65;;;7.60;;
71038;SDS011;58692;43.212;27.908;2024-02-26T03:17:10;16.83;;;7.80;;
71038;SDS011;58692;43.212;27.908;2024-02-26T03:19:35;17.60;;;7.70;;
71038;SDS011;58692;43.212;27.908;2024-02-26T03:22:01;18.63;;;7.00;;
71038;SDS011;58692;43.212;27.908;2024-02-26T03:24:27;16.48;;;7.07;;
71038;SDS011;58692;43.212;27.908;2024-02-26T03:26:53;15.30;;;7.27;;
71038;SDS011;58692;43.212;27.908;2024-02-26T03:29:18;16.55;;;7.00;;
71038;SDS011;58692;43.212;27.908;2024-02-26T03:31:44;14.05;;;6.43;;
71038;SDS011;58692;43.212;27.908;2024-02-26T03:34:10;19.53;;;6.93;;
71038;SDS011;58692;43.212;27.908;2024-02-26T03:36:37;14.07;;;6.90;;
71038;SDS011;58692;43.212;27.908;2024-02-26T03:39:03;19.35;;;6.90;;
71038;SDS011;58692;43.212;27.908;2024-02-26T03:41:33;16.80;;;6.97;;
71038;SDS011;58692;43.212;27.908;2024-02-26T03:44:00;16.80;;;7.10;;
71038;SDS011;58692;43.212;27.908;2024-02-26T03:46:25;12.88;;;6.40;;
71038;SDS011;58692;43.212;27.908;2024-02-26T03:48:51;14.23;;;7.10;;
71038;SDS011;58692;43.212;27.908;2024-02-26T03:51:17;16.08;;;6.63;;
71038;SDS011;58692;43.212;27.908;2024-02-26T03:53:42;16.53;;;6.60;;
71038;SDS011;58692;43.212;27.908;2024-02-26T03:56:08;14.52;;;6.10;;
71038;SDS011;58692;43.212;27.908;2024-02-26T03:58:36;13.87;;;5.67;;
71038;SDS011;58692;43.212;27.908;2024-02-26T04:01:01;16.60;;;6.25;;
71038;SDS011;58692;43.212;27.908;2024-02-26T04:03:27;16.27;;;5.53;;
71038;SDS011;58692;43.212;27.908;2024-02-26T04:05:53;16.50;;;6.25;;
71038;SDS011;58692;43.212;27.908;2024-02-26T04:08:18;19.03;;;5.90;;
71038;SDS011;58692;43.212;27.908;2024-02-26T04:10:44;15.10;;;6.13;;
71038;SDS011;58692;43.212;27.908;2024-02-26T04:13:09;18.43;;;5.90;;
71038;SDS011;58692;43.212;27.908;2024-02-26T04:15:35;15.50;;;5.50;;
71038;SDS011;58692;43.212;27.908;2024-02-26T04:18:01;15.20;;;5.90;;
71038;SDS011;58692;43.212;27.908;2024-02-26T04:20:27;15.00;;;5.68;;
71038;SDS011;58692;43.212;27.908;2024-02-26T04:22:53;18.40;;;6.27;;
71038;SDS011;58692;43.212;27.908;2024-02-26T04:25:18;13.77;;;5.43;;
71038;SDS011;58692;43.212;27.908;2024-02-26T04:27:44;15.30;;;5.70;;
71038;SDS011;58692;43.212;27.908;2024-02-26T04:30:10;18.43;;;6.10;;
71038;SDS011;58692;43.212;27.908;2024-02-26T04:32:36;17.00;;;5.70;;
71038;SDS011;58692;43.212;27.908;2024-02-26T04:35:02;14.70;;;5.30;;
71038;SDS011;58692;43.212;27.908;2024-02-26T04:37:28;16.08;;;6.18;;
71038;SDS011;58692;43.212;27.908;2024-02-26T04:39:57;16.67;;;5.55;;
71038;SDS011;58692;43.212;27.908;2024-02-26T04:42:25;15.85;;;5.65;;
71038;SDS011;58692;43.212;27.908;2024-02-26T04:44:50;19.53;;;5.50;;
71038;SDS011;58692;43.212;27.908;2024-02-26T04:47:16;19.70;;;6.30;;
71038;SDS011;58692;43.212;27.908;2024-02-26T04:49:41;18.73;;;6.03;;
71038;SDS011;58692;43.212;27.908;2024-02-26T04:52:07;17.67;;;6.45;;
71038;SDS011;58692;43.212;27.908;2024-02-26T04:54:33;17.10;;;5.93;;
71038;SDS011;58692;43.212;27.908;2024-02-26T04:56:59;18.60;;;6.20;;
71038;SDS011;58692;43.212;27.908;2024-02-26T04:59:24;16.27;;;6.20;;
71038;SDS011;58692;43.212;27.908;2024-02-26T05:01:50;17.58;;;6.68;;
71038;SDS011;58692;43.212;27.908;2024-02-26T05:04:17;17.93;;;5.70;;
71038;SDS011;58692;43.212;27.908;2024-02-26T05:06:43;14.60;;;5.22;;
71038;SDS011;58692;43.212;27.908;2024-02-26T05:09:08;16.30;;;5.30;;
71038;SDS011;58692;43.212;27.908;2024-02-26T05:11:34;16.95;;;6.10;;
71038;SDS011;58692;43.212;27.908;2024-02-26T05:14:00;16.63;;;5.20;;
71038;SDS011;58692;43.212;27.908;2024-02-26T05:16:26;15.00;;;5.45;;
71038;SDS011;58692;43.212;27.908;2024-02-26T05:18:52;14.48;;;5.95;;
71038;SDS011;58692;43.212;27.908;2024-02-26T05:21:18;15.20;;;5.93;;
71038;SDS011;58692;43.212;27.908;2024-02-26T05:23:44;16.67;;;5.20;;
71038;SDS011;58692;43.212;27.908;2024-02-26T05:26:10;14.50;;;5.03;;
71038;SDS011;58692;43.212;27.908;2024-02-26T05:28:36;13.57;;;5.73;;
71038;SDS011;58692;43.212;27.908;2024-02-26T05:31:04;18.77;;;5.13;;
71038;SDS011;58692;43.212;27.908;2024-02-26T05:33:30;15.32;;;5.60;;
71038;SDS011;58692;43.212;27.908;2024-02-26T05:35:56;15.68;;;5.60;;
71038;SDS011;58692;43.212;27.908;2024-02-26T05:38:22;17.23;;;5.73;;
71038;SDS011;58692;43.212;27.908;2024-02-26T05:40:47;16.13;;;5.70;;
71038;SDS011;58692;43.212;27.908;2024-02-26T05:43:13;16.87;;;6.13;;
71038;SDS011;58692;43.212;27.908;2024-02-26T05:45:40;17.02;;;5.55;;
71038;SDS011;58692;43.212;27.908;2024-02-26T05:48:06;17.80;;;5.90;;
71038;SDS011;58692;43.212;27.908;2024-02-26T05:50:32;18.40;;;6.20;;
71038;SDS011;58692;43.212;27.908;2024-02-26T05:52:58;18.67;;;6.53;;
71038;SDS011;58692;43.212;27.908;2024-02-26T05:55:23;19.73;;;5.53;;
71038;SDS011;58692;43.212;27.908;2024-02-26T05:57:49;15.80;;;5.38;;
71038;SDS011;58692;43.212;27.908;2024-02-26T06:00:15;19.17;;;5.80;;
71038;SDS011;58692;43.212;27.908;2024-02-26T06:02:41;16.25;;;5.45;;
71038;SDS011;58692;43.212;27.908;2024-02-26T06:05:06;18.95;;;5.78;;
71038;SDS011;58692;43.212;27.908;2024-02-26T06:07:34;18.10;;;5.63;;
71038;SDS011;58692;43.212;27.908;2024-02-26T06:10:00;15.13;;;5.88;;
71038;SDS011;58692;43.212;27.908;2024-02-26T06:12:26;12.25;;;4.82;;
71038;SDS011;58692;43.212;27.908;2024-02-26T06:14:53;16.80;;;4.78;;
71038;SDS011;58692;43.212;27.908;2024-02-26T06:17:19;16.15;;;5.47;;
71038;SDS011;58692;43.212;27.908;2024-02-26T06:19:45;17.70;;;5.47;;
71038;SDS011;58692;43.212;27.908;2024-02-26T06:22:11;14.65;;;4.82;;
71038;SDS011;58692;43.212;27.908;2024-02-26T06:24:36;17.15;;;5.82;;
71038;SDS011;58692;43.212;27.908;2024-02-26T06:27:05;14.43;;;4.83;;
71038;SDS011;58692;43.212;27.908;2024-02-26T06:29:31;12.70;;;4.70;;
71038;SDS011;58692;43.212;27.908;2024-02-26T06:31:56;14.30;;;4.93;;
71038;SDS011;58692;43.212;27.908;2024-02-26T06:34:22;16.10;;;5.30;;
71038;SDS011;58692;43.212;27.908;2024-02-26T06:36:48;13.07;;;4.60;;
71038;SDS011;58692;43.212;27.908;2024-02-26T06:39:14;17.60;;;5.15;;
71038;SDS011;58692;43.212;27.908;2024-02-26T06:41:41;19.23;;;4.97;;
71038;SDS011;58692;43.212;27.908;2024-02-26T06:44:06;18.75;;;5.00;;
71038;SDS011;58692;43.212;27.908;2024-02-26T06:46:32;14.60;;;4.80;;
71038;SDS011;58692;43.212;27.908;2024-02-26T06:48:58;14.98;;;5.05;;
71038;SDS011;58692;43.212;27.908;2024-02-26T06:51:23;13.00;;;4.53;;
71038;SDS011;58692;43.212;27.908;2024-02-26T06:53:49;14.73;;;4.85;;
71038;SDS011;58692;43.212;27.908;2024-02-26T06:56:14;14.83;;;4.03;;
71038;SDS011;58692;43.212;27.908;2024-02-26T06:58:40;14.00;;;4.80;;
71038;SDS011;58692;43.212;27.908;2024-02-26T07:01:06;15.80;;;5.10;;
71038;SDS011;58692;43.212;27.908;2024-02-26T07:03:33;14.30;;;5.53;;
71038;SDS011;58692;43.212;27.908;2024-02-26T07:06:02;16.23;;;5.13;;
71038;SDS011;58692;43.212;27.908;2024-02-26T07:08:28;13.27;;;5.10;;
71038;SDS011;58692;43.212;27.908;2024-02-26T07:10:54;14.80;;;5.43;;
71038;SDS011;58692;43.212;27.908;2024-02-26T07:13:20;19.58;;;5.60;;
71038;SDS011;58692;43.212;27.908;2024-02-26T07:15:48;14.32;;;4.30;;
71038;SDS011;58692;43.212;27.908;2024-02-26T07:18:14;11.10;;;4.03;;
71038;SDS011;58692;43.212;27.908;2024-02-26T07:20:39;13.75;;;4.53;;
71038;SDS011;58692;43.212;27.908;2024-02-26T07:23:05;13.63;;;4.20;;
71038;SDS011;58692;43.212;27.908;2024-02-26T07:25:32;13.23;;;3.95;;
71038;SDS011;58692;43.212;27.908;2024-02-26T07:27:57;11.98;;;4.05;;
71038;SDS011;58692;43.212;27.908;2024-02-26T07:30:23;13.17;;;4.63;;
71038;SDS011;58692;43.212;27.908;2024-02-26T07:32:50;14.55;;;4.85;;
71038;SDS011;58692;43.212;27.908;2024-02-26T07:35:15;13.77;;;4.60;;
71038;SDS011;58692;43.212;27.908;2024-02-26T07:37:42;13.80;;;4.23;;
71038;SDS011;58692;43.212;27.908;2024-02-26T07:40:08;15.02;;;4.88;;
71038;SDS011;58692;43.212;27.908;2024-02-26T07:42:34;11.80;;;4.30;;
71038;SDS011;58692;43.212;27.908;2024-02-26T07:45:04;12.93;;;4.68;;
71038;SDS011;58692;43.212;27.908;2024-02-26T07:47:30;14.37;;;5.77;;
71038;SDS011;58692;43.212;27.908;2024-02-26T07:49:56;13.90;;;4.63;;
71038;SDS011;58692;43.212;27.908;2024-02-26T07:52:22;12.75;;;4.50;;
71038;SDS011;58692;43.212;27.908;2024-02-26T07:54:48;15.60;;;4.50;;
71038;SDS011;58692;43.212;27.908;2024-02-26T07:57:14;11.43;;;4.18;;
71038;SDS011;58692;43.212;27.908;2024-02-26T07:59:42;14.38;;;4.40;;
71038;SDS011;58692;43.212;27.908;2024-02-26T08:02:10;11.70;;;4.40;;
71038;SDS011;58692;43.212;27.908;2024-02-26T08:04:36;13.00;;;4.18;;
71038;SDS011;58692;43.212;27.908;2024-02-26T08:07:02;12.33;;;4.00;;
71038;SDS011;58692;43.212;27.908;2024-02-26T08:09:28;14.82;;;4.65;;
71038;SDS011;58692;43.212;27.908;2024-02-26T08:11:53;11.53;;;4.47;;
71038;SDS011;58692;43.212;27.908;2024-02-26T08:14:20;13.20;;;4.80;;
71038;SDS011;58692;43.212;27.908;2024-02-26T08:16:49;13.23;;;5.15;;
71038;SDS011;58692;43.212;27.908;2024-02-26T08:19:14;15.03;;;4.83;;
71038;SDS011;58692;43.212;27.908;2024-02-26T08:21:41;13.43;;;4.97;;
71038;SDS011;58692;43.212;27.908;2024-02-26T08:24:07;12.82;;;4.55;;
71038;SDS011;58692;43.212;27.908;2024-02-26T08:26:33;12.75;;;4.43;;
71038;SDS011;58692;43.212;27.908;2024-02-26T08:28:58;13.13;;;4.30;;
71038;SDS011;58692;43.212;27.908;2024-02-26T08:31:24;12.90;;;4.30;;
71038;SDS011;58692;43.212;27.908;2024-02-26T08:33:55;16.15;;;4.20;;
71038;SDS011;58692;43.212;27.908;2024-02-26T08:36:21;13.05;;;4.75;;
71038;SDS011;58692;43.212;27.908;2024-02-26T08:38:48;11.17;;;4.33;;
71038;SDS011;58692;43.212;27.908;2024-02-26T08:41:13;15.25;;;4.80;;
71038;SDS011;58692;43.212;27.908;2024-02-26T08:43:39;13.70;;;4.20;;
71038;SDS011;58692;43.212;27.908;2024-02-26T08:46:08;11.27;;;3.90;;
71038;SDS011;58692;43.212;27.908;2024-02-26T08:48:35;12.07;;;3.67;;
71038;SDS011;58692;43.212;27.908;2024-02-26T08:51:04;10.37;;;3.37;;
71038;SDS011;58692;43.212;27.908;2024-02-26T08:53:31;10.90;;;3.05;;
71038;SDS011;58692;43.212;27.908;2024-02-26T08:55:57;11.52;;;3.78;;
71038;SDS011;58692;43.212;27.908;2024-02-26T08:58:23;12.70;;;3.50;;
71038;SDS011;58692;43.212;27.908;2024-02-26T09:00:48;13.73;;;4.57;;
71038;SDS011;58692;43.212;27.908;2024-02-26T09:03:14;11.33;;;3.70;;
71038;SDS011;58692;43.212;27.908;2024-02-26T09:05:40;14.30;;;4.20;;
71038;SDS011;58692;43.212;27.908;2024-02-26T09:08:05;14.73;;;4.17;;
71038;SDS011;58692;43.212;27.908;2024-02-26T09:10:31;10.18;;;3.78;;
71038;SDS011;58692;43.212;27.908;2024-02-26T09:12:58;11.93;;;3.92;;
71038;SDS011;58692;43.212;27.908;2024-02-26T09:15:23;13.83;;;3.90;;
71038;SDS011;58692;43.212;27.908;2024-02-26T09:17:49;13.45;;;3.83;;
71038;SDS011;58692;43.212;27.908;2024-02-26T09:20:15;14.35;;;3.58;;
71038;SDS011;58692;43.212;27.908;2024-02-26T09:22:45;12.20;;;3.83;;
71038;SDS011;58692;43.212;27.908;2024-02-26T09:25:12;10.27;;;3.60;;
71038;SDS011;58692;43.212;27.908;2024-02-26T09:27:39;12.02;;;4.20;;
71038;SDS011;58692;43.212;27.908;2024-02-26T09:30:04;10.60;;;4.07;;
71038;SDS011;58692;43.212;27.908;2024-02-26T09:32:32;10.05;;;3.78;;
71038;SDS011;58692;43.212;27.908;2024-02-26T09:34:57;12.68;;;3.83;;
71038;SDS011;58692;43.212;27.908;2024-02-26T09:37:26;11.40;;;3.65;;
71038;SDS011;58692;43.212;27.908;2024-02-26T09:39:52;11.33;;;4.13;;
71038;SDS011;58692;43.212;27.908;2024-02-26T09:42:18;14.85;;;3.97;;
71038;SDS011;58692;43.212;27.908;2024-02-26T09:44:44;11.82;;;4.07;;
71038;SDS011;58692;43.212;27.908;2024-02-26T09:47:14;11.80;;;4.10;;
71038;SDS011;58692;43.212;27.908;2024-02-26T09:49:42;13.73;;;4.22;;
71038;SDS011;58692;43.212;27.908;2024-02-26T09:52:08;13.77;;;3.55;;
71038;SDS011;58692;43.212;27.908;2024-02-26T09:54:34;12.93;;;3.83;;
71038;SDS011;58692;43.212;27.908;2024-02-26T09:57:02;14.40;;;4.70;;
71038;SDS011;58692;43.212;27.908;2024-02-26T09:59:29;13.55;;;4.30;;
71038;SDS011;58692;43.212;27.908;2024-02-26T10:02:04;13.23;;;3.88;;
71038;SDS011;58692;43.212;27.908;2024-02-26T10:04:30;11.60;;;4.15;;
71038;SDS011;58692;43.212;27.908;2024-02-26T10:06:56;14.73;;;4.33;;
71038;SDS011;58692;43.212;27.908;2024-02-26T10:09:25;11.70;;;3.95;;
71038;SDS011;58692;43.212;27.908;2024-02-26T10:11:51;14.10;;;4.20;;
71038;SDS011;58692;43.212;27.908;2024-02-26T10:14:17;12.05;;;3.72;;
71038;SDS011;58692;43.212;27.908;2024-02-26T10:16:42;10.60;;;3.03;;
71038;SDS011;58692;43.212;27.908;2024-02-26T10:19:08;13.23;;;4.35;;
71038;SDS011;58692;43.212;27.908;2024-02-26T10:21:35;12.65;;;3.90;;
71038;SDS011;58692;43.212;27.908;2024-02-26T10:24:01;9.40;;;4.00;;
71038;SDS011;58692;43.212;27.908;2024-02-26T10:26:27;13.13;;;4.10;;
71038;SDS011;58692;43.212;27.908;2024-02-26T10:28:53;14.87;;;4.43;;
71038;SDS011;58692;43.212;27.908;2024-02-26T10:31:33;11.55;;;4.28;;
71038;SDS011;58692;43.212;27.908;2024-02-26T10:34:23;12.23;;;3.75;;
71038;SDS011;58692;43.212;27.908;2024-02-26T10:36:49;12.82;;;4.35;;
71038;SDS011;58692;43.212;27.908;2024-02-26T10:39:16;12.38;;;3.80;;
71038;SDS011;58692;43.212;27.908;2024-02-26T10:41:42;13.33;;;4.50;;
71038;SDS011;58692;43.212;27.908;2024-02-26T10:44:10;11.98;;;3.83;;
71038;SDS011;58692;43.212;27.908;2024-02-26T10:46:37;12.75;;;4.00;;
71038;SDS011;58692;43.212;27.908;2024-02-26T10:49:03;12.03;;;3.90;;
71038;SDS011;58692;43.212;27.908;2024-02-26T10:51:31;12.75;;;4.10;;
71038;SDS011;58692;43.212;27.908;2024-02-26T10:53:59;13.05;;;3.83;;
71038;SDS011;58692;43.212;27.908;2024-02-26T10:56:27;14.35;;;4.10;;
71038;SDS011;58692;43.212;27.908;2024-02-26T10:58:54;12.43;;;4.05;;
71038;SDS011;58692;43.212;27.908;2024-02-26T11:01:21;9.57;;;3.40;;
71038;SDS011;58692;43.212;27.908;2024-02-26T11:03:48;14.25;;;3.85;;
71038;SDS011;58692;43.212;27.908;2024-02-26T11:06:15;15.38;;;4.22;;
71038;SDS011;58692;43.212;27.908;2024-02-26T11:08:42;11.82;;;3.83;;
71038;SDS011;58692;43.212;27.908;2024-02-26T11:11:09;14.63;;;3.85;;
71038;SDS011;58692;43.212;27.908;2024-02-26T11:13:38;12.83;;;3.87;;
71038;SDS011;58692;43.212;27.908;2024-02-26T11:16:05;10.40;;;3.58;;
71038;SDS011;58692;43.212;27.908;2024-02-26T11:18:32;13.20;;;3.80;;
71038;SDS011;58692;43.212;27.908;2024-02-26T11:21:00;11.75;;;4.10;;
71038;SDS011;58692;43.212;27.908;2024-02-26T11:23:33;9.18;;;3.50;;
71038;SDS011;58692;43.212;27.908;2024-02-26T11:26:02;14.00;;;3.67;;
71038;SDS011;58692;43.212;27.908;2024-02-26T11:28:31;12.07;;;3.70;;
71038;SDS011;58692;43.212;27.908;2024-02-26T11:30:58;9.50;;;3.53;;
71038;SDS011;58692;43.212;27.908;2024-02-26T11:33:25;11.75;;;3.40;;
71038;SDS011;58692;43.212;27.908;2024-02-26T11:35:53;14.60;;;3.85;;
71038;SDS011;58692;43.212;27.908;2024-02-26T11:38:20;10.70;;;3.60;;
71038;SDS011;58692;43.212;27.908;2024-02-26T11:40:47;14.95;;;4.20;;
71038;SDS011;58692;43.212;27.908;2024-02-26T11:43:13;12.23;;;3.47;;
71038;SDS011;58692;43.212;27.908;2024-02-26T11:48:12;12.80;;;3.57;;
71038;SDS011;58692;43.212;27.908;2024-02-26T11:50:39;9.75;;;3.30;;
71038;SDS011;58692;43.212;27.908;2024-02-26T11:55:48;13.73;;;3.88;;
71038;SDS011;58692;43.212;27.908;2024-02-26T11:58:31;11.48;;;3.47;;
71038;SDS011;58692;43.212;27.908;2024-02-26T12:00:59;11.67;;;3.70;;
71038;SDS011;58692;43.212;27.908;2024-02-26T12:03:25;11.55;;;3.45;;
71038;SDS011;58692;43.212;27.908;2024-02-26T12:05:51;10.80;;;3.38;;
71038;SDS011;58692;43.212;27.908;2024-02-26T12:08:17;13.10;;;3.90;;
71038;SDS011;58692;43.212;27.908;2024-02-26T12:10:48;9.77;;;3.80;;
71038;SDS011;58692;43.212;27.908;2024-02-26T12:13:14;10.85;;;3.55;;
71038;SDS011;58692;43.212;27.908;2024-02-26T12:15:42;12.07;;;3.45;;
71038;SDS011;58692;43.212;27.908;2024-02-26T12:18:18;10.18;;;3.92;;
71038;SDS011;58692;43.212;27.908;2024-02-26T12:20:45;12.37;;;4.00;;
71038;SDS011;58692;43.212;27.908;2024-02-26T12:23:15;12.15;;;4.28;;
71038;SDS011;58692;43.212;27.908;2024-02-26T12:25:43;13.60;;;4.20;;
71038;SDS011;58692;43.212;27.908;2024-02-26T12:28:09;8.85;;;3.50;;
71038;SDS011;58692;43.212;27.908;2024-02-26T12:30:35;10.52;;;3.60;;
71038;SDS011;58692;43.212;27.908;2024-02-26T12:33:01;10.77;;;3.50;;
71038;SDS011;58692;43.212;27.908;2024-02-26T12:35:28;10.68;;;3.53;;
71038;SDS011;58692;43.212;27.908;2024-02-26T12:37:56;14.48;;;4.00;;
71038;SDS011;58692;43.212;27.908;2024-02-26T12:40:23;10.68;;;3.70;;
71038;SDS011;58692;43.212;27.908;2024-02-26T12:42:49;14.47;;;3.80;;
71038;SDS011;58692;43.212;27.908;2024-02-26T12:45:15;11.10;;;3.92;;
71038;SDS011;58692;43.212;27.908;2024-02-26T12:47:45;11.45;;;3.47;;
71038;SDS011;58692;43.212;27.908;2024-02-26T12:50:11;13.68;;;4.22;;
71038;SDS011;58692;43.212;27.908;2024-02-26T12:52:39;12.33;;;4.10;;
71038;SDS011;58692;43.212;27.908;2024-02-26T12:55:08;13.85;;;4.60;;
71038;SDS011;58692;43.212;27.908;2024-02-26T12:57:38;10.73;;;3.75;;
71038;SDS011;58692;43.212;27.908;2024-02-26T13:00:04;11.82;;;4.10;;
71038;SDS011;58692;43.212;27.908;2024-02-26T13:02:34;13.15;;;3.95;;
71038;SDS011;58692;43.212;27.908;2024-02-26T13:05:03;11.97;;;3.97;;
71038;SDS011;58692;43.212;27.908;2024-02-26T13:07:33;11.10;;;3.72;;
71038;SDS011;58692;43.212;27.908;2024-02-26T13:09:59;12.23;;;3.55;;
71038;SDS011;58692;43.212;27.908;2024-02-26T13:12:29;13.63;;;4.28;;
71038;SDS011;58692;43.212;27.908;2024-02-26T13:14:59;10.43;;;3.47;;
71038;SDS011;58692;43.212;27.908;2024-02-26T13:17:25;12.73;;;4.43;;
71038;SDS011;58692;43.212;27.908;2024-02-26T13:19:53;10.98;;;3.75;;
71038;SDS011;58692;43.212;27.908;2024-02-26T13:22:20;13.75;;;4.43;;
71038;SDS011;58692;43.212;27.908;2024-02-26T13:27:29;16.60;;;4.85;;
71038;SDS011;58692;43.212;27.908;2024-02-26T13:30:03;12.70;;;4.57;;
71038;SDS011;58692;43.212;27.908;2024-02-26T13:32:33;10.88;;;3.50;;
71038;SDS011;58692;43.212;27.908;2024-02-26T13:35:04;14.95;;;4.53;;
71038;SDS011;58692;43.212;27.908;2024-02-26T13:37:37;13.17;;;4.40;;
71038;SDS011;58692;43.212;27.908;2024-02-26T13:40:08;15.25;;;4.43;;
71038;SDS011;58692;43.212;27.908;2024-02-26T13:42:46;12.73;;;4.22;;
71038;SDS011;58692;43.212;27.908;2024-02-26T13:45:13;14.98;;;4.30;;
71038;SDS011;58692;43.212;27.908;2024-02-26T13:47:39;13.00;;;4.80;;
71038;SDS011;58692;43.212;27.908;2024-02-26T13:50:05;10.98;;;4.90;;
71038;SDS011;58692;43.212;27.908;2024-02-26T13:52:31;11.88;;;4.50;;
71038;SDS011;58692;43.212;27.908;2024-02-26T13:55:00;15.15;;;4.63;;
71038;SDS011;58692;43.212;27.908;2024-02-26T13:57:27;15.18;;;4.90;;
71038;SDS011;58692;43.212;27.908;2024-02-26T13:59:53;14.07;;;4.90;;
71038;SDS011;58692;43.212;27.908;2024-02-26T14:02:19;17.65;;;5.10;;
71038;SDS011;58692;43.212;27.908;2024-02-26T14:04:45;14.27;;;4.95;;
71038;SDS011;58692;43.212;27.908;2024-02-26T14:07:12;14.20;;;4.63;;
71038;SDS011;58692;43.212;27.908;2024-02-26T14:09:38;17.27;;;5.60;;
71038;SDS011;58692;43.212;27.908;2024-02-26T14:12:06;14.75;;;5.18;;
71038;SDS011;58692;43.212;27.908;2024-02-26T14:14:32;23.35;;;5.68;;
71038;SDS011;58692;43.212;27.908;2024-02-26T14:17:01;17.58;;;5.35;;
71038;SDS011;58692;43.212;27.908;2024-02-26T14:19:28;17.30;;;6.13;;
71038;SDS011;58692;43.212;27.908;2024-02-26T14:21:54;18.00;;;5.07;;
71038;SDS011;58692;43.212;27.908;2024-02-26T14:24:19;15.43;;;5.00;;
71038;SDS011;58692;43.212;27.908;2024-02-26T14:26:45;14.02;;;4.95;;